sensor_id;sensor_type;location;lat;lon;timestamp;temperature;humidity
52979;DHT22;51106;53.186;6.598;2022-09-09T00:00:53;15.20;99.90
52979;DHT22;51106;53.186;6.598;2022-09-09T00:03:02;15.20;99.90
52979;DHT22;51106;53.186;6.598;2022-09-09T00:05:30;15.20;99.90
52979;DHT22;51106;53.186;6.598;2022-09-09T00:07:43;15.20;99.90
52979;DHT22;51106;53.186;6.598;2022-09-09T00:15:05;15.10;99.90
52979;DHT22;51106;53.186;6.598;2022-09-09T00:17:39;15.10;99.90
52979;DHT22;51106;53.186;6.598;2022-09-09T00:19:45;15.00;99.90
52979;DHT22;51106;53.186;6.598;2022-09-09T00:22:18;15.00;99.90
52979;DHT22;51106;53.186;6.598;2022-09-09T00:24:47;15.10;99.90
52979;DHT22;51106;53.186;6.598;2022-09-09T00:32:18;14.90;99.90
52979;DHT22;51106;53.186;6.598;2022-09-09T00:34:50;14.90;99.90
52979;DHT22;51106;53.186;6.598;2022-09-09T00:37:14;14.90;99.90
52979;DHT22;51106;53.186;6.598;2022-09-09T00:39:42;14.80;99.90
52979;DHT22;51106;53.186;6.598;2022-09-09T00:42:16;14.80;99.90
52979;DHT22;51106;53.186;6.598;2022-09-09T00:44:49;14.80;99.90
52979;DHT22;51106;53.186;6.598;2022-09-09T00:49:54;14.70;99.90
52979;DHT22;51106;53.186;6.598;2022-09-09T00:55:26;14.70;99.90
52979;DHT22;51106;53.186;6.598;2022-09-09T00:57:52;14.70;99.90
52979;DHT22;51106;53.186;6.598;2022-09-09T01:07:58;14.60;99.90
52979;DHT22;51106;53.186;6.598;2022-09-09T01:10:39;14.70;99.90
52979;DHT22;51106;53.186;6.598;2022-09-09T01:13:11;14.70;99.90
52979;DHT22;51106;53.186;6.598;2022-09-09T01:15:35;14.60;99.90
52979;DHT22;51106;53.186;6.598;2022-09-09T01:18:04;14.70;99.90
52979;DHT22;51106;53.186;6.598;2022-09-09T01:20:37;14.60;99.90
52979;DHT22;51106;53.186;6.598;2022-09-09T01:26:19;14.50;99.90
52979;DHT22;51106;53.186;6.598;2022-09-09T01:28:45;14.50;99.90
52979;DHT22;51106;53.186;6.598;2022-09-09T01:31:09;14.50;99.90
52979;DHT22;51106;53.186;6.598;2022-09-09T01:33:33;14.40;99.90
52979;DHT22;51106;53.186;6.598;2022-09-09T01:36:08;14.40;99.90
52979;DHT22;51106;53.186;6.598;2022-09-09T01:38:31;14.40;99.90
52979;DHT22;51106;53.186;6.598;2022-09-09T01:40:54;14.40;99.90
52979;DHT22;51106;53.186;6.598;2022-09-09T01:43:16;14.30;99.90
52979;DHT22;51106;53.186;6.598;2022-09-09T01:45:39;14.30;99.90
52979;DHT22;51106;53.186;6.598;2022-09-09T01:48:03;14.30;99.90
52979;DHT22;51106;53.186;6.598;2022-09-09T01:50:25;14.30;99.90
52979;DHT22;51106;53.186;6.598;2022-09-09T01:52:51;14.30;99.90
52979;DHT22;51106;53.186;6.598;2022-09-09T01:55:14;14.30;99.90
52979;DHT22;51106;53.186;6.598;2022-09-09T02:00:11;14.30;99.90
52979;DHT22;51106;53.186;6.598;2022-09-09T02:07:46;14.30;99.90
52979;DHT22;51106;53.186;6.598;2022-09-09T02:10:33;14.20;99.90
52979;DHT22;51106;53.186;6.598;2022-09-09T02:13:12;14.30;99.90
52979;DHT22;51106;53.186;6.598;2022-09-09T02:18:01;14.20;99.90
52979;DHT22;51106;53.186;6.598;2022-09-09T02:20:26;14.20;99.90
52979;DHT22;51106;53.186;6.598;2022-09-09T02:22:56;14.20;99.90
52979;DHT22;51106;53.186;6.598;2022-09-09T02:25:22;14.20;99.90
52979;DHT22;51106;53.186;6.598;2022-09-09T02:27:46;14.20;99.90
52979;DHT22;51106;53.186;6.598;2022-09-09T02:30:09;14.20;99.90
52979;DHT22;51106;53.186;6.598;2022-09-09T02:32:34;14.20;99.90
52979;DHT22;51106;53.186;6.598;2022-09-09T02:35:03;14.40;99.90
52979;DHT22;51106;53.186;6.598;2022-09-09T02:37:31;14.20;99.90
52979;DHT22;51106;53.186;6.598;2022-09-09T02:39:55;14.20;99.90
52979;DHT22;51106;53.186;6.598;2022-09-09T02:42:17;14.20;99.90
52979;DHT22;51106;53.186;6.598;2022-09-09T02:44:39;14.20;99.90
52979;DHT22;51106;53.186;6.598;2022-09-09T02:47:26;14.20;99.90
52979;DHT22;51106;53.186;6.598;2022-09-09T02:49:59;14.20;99.90
52979;DHT22;51106;53.186;6.598;2022-09-09T02:52:36;14.30;99.90
52979;DHT22;51106;53.186;6.598;2022-09-09T02:55:06;14.30;99.90
52979;DHT22;51106;53.186;6.598;2022-09-09T02:57:31;14.30;99.90
52979;DHT22;51106;53.186;6.598;2022-09-09T02:59:57;14.30;99.90
52979;DHT22;51106;53.186;6.598;2022-09-09T03:02:19;14.30;99.90
52979;DHT22;51106;53.186;6.598;2022-09-09T03:04:41;14.40;99.90
52979;DHT22;51106;53.186;6.598;2022-09-09T03:07:06;14.40;99.90
52979;DHT22;51106;53.186;6.598;2022-09-09T03:09:28;14.40;99.90
52979;DHT22;51106;53.186;6.598;2022-09-09T03:11:51;14.40;99.90
52979;DHT22;51106;53.186;6.598;2022-09-09T03:14:13;14.40;99.90
52979;DHT22;51106;53.186;6.598;2022-09-09T03:16:35;14.50;99.90
52979;DHT22;51106;53.186;6.598;2022-09-09T03:18:57;14.50;99.90
52979;DHT22;51106;53.186;6.598;2022-09-09T03:21:19;14.50;99.90
52979;DHT22;51106;53.186;6.598;2022-09-09T03:23:41;14.50;99.90
52979;DHT22;51106;53.186;6.598;2022-09-09T03:26:03;14.50;99.90
52979;DHT22;51106;53.186;6.598;2022-09-09T03:28:24;14.50;99.90
52979;DHT22;51106;53.186;6.598;2022-09-09T03:30:58;14.50;99.90
52979;DHT22;51106;53.186;6.598;2022-09-09T03:33:20;14.60;99.90
52979;DHT22;51106;53.186;6.598;2022-09-09T03:35:46;14.60;99.90
52979;DHT22;51106;53.186;6.598;2022-09-09T03:38:12;14.60;99.90
52979;DHT22;51106;53.186;6.598;2022-09-09T03:40:34;14.60;99.90
52979;DHT22;51106;53.186;6.598;2022-09-09T03:42:56;14.60;99.90
52979;DHT22;51106;53.186;6.598;2022-09-09T03:45:18;14.60;99.90
52979;DHT22;51106;53.186;6.598;2022-09-09T03:47:40;14.60;99.90
52979;DHT22;51106;53.186;6.598;2022-09-09T03:50:03;14.60;99.90
52979;DHT22;51106;53.186;6.598;2022-09-09T03:52:26;14.60;99.90
52979;DHT22;51106;53.186;6.598;2022-09-09T03:54:48;14.60;99.90
52979;DHT22;51106;53.186;6.598;2022-09-09T03:57:10;14.60;99.90
52979;DHT22;51106;53.186;6.598;2022-09-09T03:59:32;14.70;99.90
52979;DHT22;51106;53.186;6.598;2022-09-09T04:01:54;14.70;99.90
52979;DHT22;51106;53.186;6.598;2022-09-09T04:04:16;14.70;99.90
52979;DHT22;51106;53.186;6.598;2022-09-09T04:06:38;14.70;99.90
52979;DHT22;51106;53.186;6.598;2022-09-09T04:09:00;14.70;99.90
52979;DHT22;51106;53.186;6.598;2022-09-09T04:11:24;14.80;99.90
52979;DHT22;51106;53.186;6.598;2022-09-09T04:13:47;14.80;99.90
52979;DHT22;51106;53.186;6.598;2022-09-09T04:16:10;14.90;99.90
52979;DHT22;51106;53.186;6.598;2022-09-09T04:18:34;14.90;99.90
52979;DHT22;51106;53.186;6.598;2022-09-09T04:20:57;14.90;99.90
52979;DHT22;51106;53.186;6.598;2022-09-09T04:23:20;14.90;99.90
52979;DHT22;51106;53.186;6.598;2022-09-09T04:25:52;14.90;99.90
52979;DHT22;51106;53.186;6.598;2022-09-09T04:28:18;14.90;99.90
52979;DHT22;51106;53.186;6.598;2022-09-09T04:30:41;14.90;99.90
52979;DHT22;51106;53.186;6.598;2022-09-09T04:33:03;15.00;99.90
52979;DHT22;51106;53.186;6.598;2022-09-09T04:35:25;14.90;99.90
52979;DHT22;51106;53.186;6.598;2022-09-09T04:37:48;14.90;99.90
52979;DHT22;51106;53.186;6.598;2022-09-09T04:40:11;14.80;99.90
52979;DHT22;51106;53.186;6.598;2022-09-09T04:42:36;14.90;99.90
52979;DHT22;51106;53.186;6.598;2022-09-09T04:44:58;14.80;99.90
52979;DHT22;51106;53.186;6.598;2022-09-09T04:47:20;14.80;99.90
52979;DHT22;51106;53.186;6.598;2022-09-09T04:49:42;14.80;99.90
52979;DHT22;51106;53.186;6.598;2022-09-09T04:52:04;14.80;99.90
52979;DHT22;51106;53.186;6.598;2022-09-09T04:54:26;14.90;99.90
52979;DHT22;51106;53.186;6.598;2022-09-09T04:56:52;14.80;99.90
52979;DHT22;51106;53.186;6.598;2022-09-09T04:59:13;14.90;99.90
52979;DHT22;51106;53.186;6.598;2022-09-09T05:01:35;14.80;99.90
52979;DHT22;51106;53.186;6.598;2022-09-09T05:03:57;14.90;99.90
52979;DHT22;51106;53.186;6.598;2022-09-09T05:06:21;14.80;99.90
52979;DHT22;51106;53.186;6.598;2022-09-09T05:08:43;14.80;99.90
52979;DHT22;51106;53.186;6.598;2022-09-09T05:11:20;14.80;99.90
52979;DHT22;51106;53.186;6.598;2022-09-09T05:13:45;14.80;99.90
52979;DHT22;51106;53.186;6.598;2022-09-09T05:16:08;14.80;99.90
52979;DHT22;51106;53.186;6.598;2022-09-09T05:18:33;14.80;99.90
52979;DHT22;51106;53.186;6.598;2022-09-09T05:21:00;14.80;99.90
52979;DHT22;51106;53.186;6.598;2022-09-09T05:23:22;14.80;99.90
52979;DHT22;51106;53.186;6.598;2022-09-09T05:25:54;14.80;99.90
52979;DHT22;51106;53.186;6.598;2022-09-09T05:28:17;14.80;99.90
52979;DHT22;51106;53.186;6.598;2022-09-09T05:30:39;14.70;99.90
52979;DHT22;51106;53.186;6.598;2022-09-09T05:33:01;14.80;99.90
52979;DHT22;51106;53.186;6.598;2022-09-09T05:35:22;14.70;99.90
52979;DHT22;51106;53.186;6.598;2022-09-09T05:37:44;14.70;99.90
52979;DHT22;51106;53.186;6.598;2022-09-09T05:40:08;14.70;99.90
52979;DHT22;51106;53.186;6.598;2022-09-09T05:42:31;14.70;99.90
52979;DHT22;51106;53.186;6.598;2022-09-09T05:44:54;14.70;99.90
52979;DHT22;51106;53.186;6.598;2022-09-09T05:47:16;14.70;99.90
52979;DHT22;51106;53.186;6.598;2022-09-09T05:49:38;14.80;99.90
52979;DHT22;51106;53.186;6.598;2022-09-09T05:52:00;14.70;99.90
52979;DHT22;51106;53.186;6.598;2022-09-09T05:54:23;14.70;99.90
52979;DHT22;51106;53.186;6.598;2022-09-09T05:56:45;14.70;99.90
52979;DHT22;51106;53.186;6.598;2022-09-09T05:59:12;14.80;99.90
52979;DHT22;51106;53.186;6.598;2022-09-09T06:01:35;14.80;99.90
52979;DHT22;51106;53.186;6.598;2022-09-09T06:03:58;14.80;99.90
52979;DHT22;51106;53.186;6.598;2022-09-09T06:06:25;14.80;99.90
52979;DHT22;51106;53.186;6.598;2022-09-09T06:08:49;14.80;99.90
52979;DHT22;51106;53.186;6.598;2022-09-09T06:11:23;14.80;99.90
52979;DHT22;51106;53.186;6.598;2022-09-09T06:13:45;14.80;99.90
52979;DHT22;51106;53.186;6.598;2022-09-09T06:16:11;14.80;99.90
52979;DHT22;51106;53.186;6.598;2022-09-09T06:18:33;14.90;99.90
52979;DHT22;51106;53.186;6.598;2022-09-09T06:20:57;14.80;99.90
52979;DHT22;51106;53.186;6.598;2022-09-09T06:23:19;14.80;99.90
52979;DHT22;51106;53.186;6.598;2022-09-09T06:25:42;14.80;99.90
52979;DHT22;51106;53.186;6.598;2022-09-09T06:28:04;14.80;99.90
52979;DHT22;51106;53.186;6.598;2022-09-09T06:30:26;14.80;99.90
52979;DHT22;51106;53.186;6.598;2022-09-09T06:32:47;14.80;99.90
52979;DHT22;51106;53.186;6.598;2022-09-09T06:35:09;14.80;99.90
52979;DHT22;51106;53.186;6.598;2022-09-09T06:37:32;14.80;99.90
52979;DHT22;51106;53.186;6.598;2022-09-09T06:39:54;14.90;99.90
52979;DHT22;51106;53.186;6.598;2022-09-09T06:42:16;14.90;99.90
52979;DHT22;51106;53.186;6.598;2022-09-09T06:44:38;14.90;99.90
52979;DHT22;51106;53.186;6.598;2022-09-09T06:47:00;15.00;99.90
52979;DHT22;51106;53.186;6.598;2022-09-09T06:49:22;15.10;99.90
52979;DHT22;51106;53.186;6.598;2022-09-09T06:51:44;15.20;99.90
52979;DHT22;51106;53.186;6.598;2022-09-09T06:54:06;15.20;99.90
52979;DHT22;51106;53.186;6.598;2022-09-09T06:56:39;15.30;99.90
52979;DHT22;51106;53.186;6.598;2022-09-09T06:59:05;15.30;99.90
52979;DHT22;51106;53.186;6.598;2022-09-09T07:01:29;15.30;99.90
52979;DHT22;51106;53.186;6.598;2022-09-09T07:03:54;15.40;99.90
52979;DHT22;51106;53.186;6.598;2022-09-09T07:06:21;15.30;99.90
52979;DHT22;51106;53.186;6.598;2022-09-09T07:08:43;15.30;99.90
52979;DHT22;51106;53.186;6.598;2022-09-09T07:11:19;15.40;99.90
52979;DHT22;51106;53.186;6.598;2022-09-09T07:13:41;15.40;99.90
52979;DHT22;51106;53.186;6.598;2022-09-09T07:16:10;15.40;99.90
52979;DHT22;51106;53.186;6.598;2022-09-09T07:18:34;15.40;99.90
52979;DHT22;51106;53.186;6.598;2022-09-09T07:20:56;15.50;99.90
52979;DHT22;51106;53.186;6.598;2022-09-09T07:23:18;15.40;99.90
52979;DHT22;51106;53.186;6.598;2022-09-09T07:25:44;15.40;99.90
52979;DHT22;51106;53.186;6.598;2022-09-09T07:28:07;15.50;99.90
52979;DHT22;51106;53.186;6.598;2022-09-09T07:30:29;15.50;99.90
52979;DHT22;51106;53.186;6.598;2022-09-09T07:32:52;15.60;99.90
52979;DHT22;51106;53.186;6.598;2022-09-09T07:35:14;15.60;99.90
52979;DHT22;51106;53.186;6.598;2022-09-09T07:37:37;15.60;99.90
52979;DHT22;51106;53.186;6.598;2022-09-09T07:39:59;15.80;99.90
52979;DHT22;51106;53.186;6.598;2022-09-09T07:42:21;15.80;99.90
52979;DHT22;51106;53.186;6.598;2022-09-09T07:44:43;15.90;99.90
52979;DHT22;51106;53.186;6.598;2022-09-09T07:47:05;16.00;99.90
52979;DHT22;51106;53.186;6.598;2022-09-09T07:49:27;15.90;99.90
52979;DHT22;51106;53.186;6.598;2022-09-09T07:51:53;16.00;99.90
52979;DHT22;51106;53.186;6.598;2022-09-09T07:54:17;16.00;99.90
52979;DHT22;51106;53.186;6.598;2022-09-09T07:56:42;16.10;99.90
52979;DHT22;51106;53.186;6.598;2022-09-09T07:59:04;16.20;99.90
52979;DHT22;51106;53.186;6.598;2022-09-09T08:01:33;16.30;99.90
52979;DHT22;51106;53.186;6.598;2022-09-09T08:03:58;16.30;99.90
52979;DHT22;51106;53.186;6.598;2022-09-09T08:06:20;16.40;99.90
52979;DHT22;51106;53.186;6.598;2022-09-09T08:08:43;16.50;99.90
52979;DHT22;51106;53.186;6.598;2022-09-09T08:11:11;16.60;99.90
52979;DHT22;51106;53.186;6.598;2022-09-09T08:13:37;16.70;99.90
52979;DHT22;51106;53.186;6.598;2022-09-09T08:16:07;16.70;99.90
52979;DHT22;51106;53.186;6.598;2022-09-09T08:18:29;16.80;99.90
52979;DHT22;51106;53.186;6.598;2022-09-09T08:20:52;17.00;99.90
52979;DHT22;51106;53.186;6.598;2022-09-09T08:23:15;16.90;99.90
52979;DHT22;51106;53.186;6.598;2022-09-09T08:25:36;17.00;99.90
52979;DHT22;51106;53.186;6.598;2022-09-09T08:27:58;17.10;99.90
52979;DHT22;51106;53.186;6.598;2022-09-09T08:30:20;17.20;99.90
52979;DHT22;51106;53.186;6.598;2022-09-09T08:32:42;17.20;99.90
52979;DHT22;51106;53.186;6.598;2022-09-09T08:35:08;17.30;99.90
52979;DHT22;51106;53.186;6.598;2022-09-09T08:37:30;17.30;99.90
52979;DHT22;51106;53.186;6.598;2022-09-09T08:39:53;17.30;99.90
52979;DHT22;51106;53.186;6.598;2022-09-09T08:42:23;17.40;99.90
52979;DHT22;51106;53.186;6.598;2022-09-09T08:47:37;17.40;99.90
52979;DHT22;51106;53.186;6.598;2022-09-09T08:50:28;17.40;99.90
52979;DHT22;51106;53.186;6.598;2022-09-09T08:58:23;17.60;99.90
52979;DHT22;51106;53.186;6.598;2022-09-09T09:12:01;17.70;99.90
52979;DHT22;51106;53.186;6.598;2022-09-09T09:14:24;17.70;99.90
52979;DHT22;51106;53.186;6.598;2022-09-09T09:16:57;17.70;99.90
52979;DHT22;51106;53.186;6.598;2022-09-09T09:19:21;17.70;99.90
52979;DHT22;51106;53.186;6.598;2022-09-09T09:24:20;17.80;99.90
52979;DHT22;51106;53.186;6.598;2022-09-09T09:26:47;17.80;99.90
52979;DHT22;51106;53.186;6.598;2022-09-09T09:29:18;18.00;99.90
52979;DHT22;51106;53.186;6.598;2022-09-09T09:31:51;18.10;99.90
52979;DHT22;51106;53.186;6.598;2022-09-09T09:34:13;18.40;99.90
52979;DHT22;51106;53.186;6.598;2022-09-09T09:36:41;18.70;99.90
52979;DHT22;51106;53.186;6.598;2022-09-09T09:39:04;19.00;99.90
52979;DHT22;51106;53.186;6.598;2022-09-09T09:41:47;19.00;99.90
52979;DHT22;51106;53.186;6.598;2022-09-09T09:44:30;19.20;99.90
52979;DHT22;51106;53.186;6.598;2022-09-09T09:46:52;19.20;99.90
52979;DHT22;51106;53.186;6.598;2022-09-09T09:49:15;19.30;99.90
52979;DHT22;51106;53.186;6.598;2022-09-09T09:51:37;19.50;99.90
52979;DHT22;51106;53.186;6.598;2022-09-09T09:54:17;19.70;99.90
52979;DHT22;51106;53.186;6.598;2022-09-09T09:56:41;19.70;99.90
52979;DHT22;51106;53.186;6.598;2022-09-09T09:58:55;19.80;99.90
52979;DHT22;51106;53.186;6.598;2022-09-09T10:01:31;19.70;99.90
52979;DHT22;51106;53.186;6.598;2022-09-09T10:04:01;19.50;99.90
52979;DHT22;51106;53.186;6.598;2022-09-09T10:06:34;19.40;99.90
52979;DHT22;51106;53.186;6.598;2022-09-09T10:09:03;19.30;99.90
52979;DHT22;51106;53.186;6.598;2022-09-09T10:11:58;19.20;99.90
52979;DHT22;51106;53.186;6.598;2022-09-09T10:17:07;19.50;99.90
52979;DHT22;51106;53.186;6.598;2022-09-09T10:19:34;19.40;99.90
52979;DHT22;51106;53.186;6.598;2022-09-09T10:22:20;19.40;99.90
52979;DHT22;51106;53.186;6.598;2022-09-09T10:30:14;19.40;99.90
52979;DHT22;51106;53.186;6.598;2022-09-09T10:32:46;19.40;99.90
52979;DHT22;51106;53.186;6.598;2022-09-09T10:35:34;19.40;99.90
52979;DHT22;51106;53.186;6.598;2022-09-09T10:40:58;19.10;99.90
52979;DHT22;51106;53.186;6.598;2022-09-09T10:46:14;19.00;99.90
52979;DHT22;51106;53.186;6.598;2022-09-09T10:48:59;19.00;99.90
52979;DHT22;51106;53.186;6.598;2022-09-09T10:59:58;19.40;99.90
52979;DHT22;51106;53.186;6.598;2022-09-09T11:02:27;19.60;99.90
52979;DHT22;51106;53.186;6.598;2022-09-09T11:07:36;19.40;99.90
52979;DHT22;51106;53.186;6.598;2022-09-09T11:10:04;19.30;99.90
52979;DHT22;51106;53.186;6.598;2022-09-09T11:12:30;19.20;99.90
52979;DHT22;51106;53.186;6.598;2022-09-09T11:14:48;19.10;99.90
52979;DHT22;51106;53.186;6.598;2022-09-09T11:17:18;19.10;99.90
52979;DHT22;51106;53.186;6.598;2022-09-09T11:19:42;19.10;99.90
52979;DHT22;51106;53.186;6.598;2022-09-09T11:22:16;19.20;99.90
52979;DHT22;51106;53.186;6.598;2022-09-09T11:24:44;19.40;99.90
52979;DHT22;51106;53.186;6.598;2022-09-09T11:27:16;19.70;99.90
52979;DHT22;51106;53.186;6.598;2022-09-09T11:30:02;20.00;99.90
52979;DHT22;51106;53.186;6.598;2022-09-09T11:38:26;20.30;96.40
52979;DHT22;51106;53.186;6.598;2022-09-09T11:41:01;20.30;96.10
52979;DHT22;51106;53.186;6.598;2022-09-09T11:43:29;20.50;96.60
52979;DHT22;51106;53.186;6.598;2022-09-09T11:45:54;20.60;97.00
52979;DHT22;51106;53.186;6.598;2022-09-09T11:48:45;20.50;95.90
52979;DHT22;51106;53.186;6.598;2022-09-09T11:53:55;20.20;96.90
52979;DHT22;51106;53.186;6.598;2022-09-09T11:56:32;20.50;97.30
52979;DHT22;51106;53.186;6.598;2022-09-09T11:58:58;20.40;97.90
52979;DHT22;51106;53.186;6.598;2022-09-09T12:01:42;20.60;98.00
52979;DHT22;51106;53.186;6.598;2022-09-09T12:06:58;20.90;96.40
52979;DHT22;51106;53.186;6.598;2022-09-09T12:09:48;20.80;96.50
52979;DHT22;51106;53.186;6.598;2022-09-09T12:17:30;20.70;97.00
52979;DHT22;51106;53.186;6.598;2022-09-09T12:20:16;20.70;96.60
52979;DHT22;51106;53.186;6.598;2022-09-09T12:33:40;20.50;95.20
52979;DHT22;51106;53.186;6.598;2022-09-09T12:36:10;20.40;94.90
52979;DHT22;51106;53.186;6.598;2022-09-09T12:38:36;20.20;95.00
52979;DHT22;51106;53.186;6.598;2022-09-09T12:40:59;20.10;95.60
52979;DHT22;51106;53.186;6.598;2022-09-09T12:43:24;20.00;96.40
52979;DHT22;51106;53.186;6.598;2022-09-09T12:45:46;20.00;96.60
52979;DHT22;51106;53.186;6.598;2022-09-09T12:48:09;20.00;97.00
52979;DHT22;51106;53.186;6.598;2022-09-09T12:50:43;20.00;97.40
52979;DHT22;51106;53.186;6.598;2022-09-09T12:53:12;20.00;97.10
52979;DHT22;51106;53.186;6.598;2022-09-09T12:55:38;20.10;97.50
52979;DHT22;51106;53.186;6.598;2022-09-09T12:58:02;20.30;97.70
52979;DHT22;51106;53.186;6.598;2022-09-09T13:00:28;20.40;97.30
52979;DHT22;51106;53.186;6.598;2022-09-09T13:02:54;20.60;97.30
52979;DHT22;51106;53.186;6.598;2022-09-09T13:05:21;20.70;97.60
52979;DHT22;51106;53.186;6.598;2022-09-09T13:07:43;20.90;97.50
52979;DHT22;51106;53.186;6.598;2022-09-09T13:10:07;21.00;97.00
52979;DHT22;51106;53.186;6.598;2022-09-09T13:12:46;21.10;96.10
52979;DHT22;51106;53.186;6.598;2022-09-09T13:15:16;21.20;95.90
52979;DHT22;51106;53.186;6.598;2022-09-09T13:17:41;21.30;95.80
52979;DHT22;51106;53.186;6.598;2022-09-09T13:20:03;21.30;95.50
52979;DHT22;51106;53.186;6.598;2022-09-09T13:22:35;21.20;95.60
52979;DHT22;51106;53.186;6.598;2022-09-09T13:25:00;21.20;95.00
52979;DHT22;51106;53.186;6.598;2022-09-09T13:27:28;21.10;95.30
52979;DHT22;51106;53.186;6.598;2022-09-09T13:29:52;21.00;95.60
52979;DHT22;51106;53.186;6.598;2022-09-09T13:32:18;21.00;95.30
52979;DHT22;51106;53.186;6.598;2022-09-09T13:39:53;21.40;95.00
52979;DHT22;51106;53.186;6.598;2022-09-09T13:42:41;21.30;94.60
52979;DHT22;51106;53.186;6.598;2022-09-09T13:45:04;21.10;93.70
52979;DHT22;51106;53.186;6.598;2022-09-09T13:47:30;20.90;94.50
52979;DHT22;51106;53.186;6.598;2022-09-09T13:49:53;20.90;94.80
52979;DHT22;51106;53.186;6.598;2022-09-09T13:52:17;20.80;94.90
52979;DHT22;51106;53.186;6.598;2022-09-09T13:54:41;20.60;94.80
52979;DHT22;51106;53.186;6.598;2022-09-09T13:57:04;20.60;95.30
52979;DHT22;51106;53.186;6.598;2022-09-09T13:59:21;20.80;95.10
52979;DHT22;51106;53.186;6.598;2022-09-09T14:01:43;20.80;95.10
52979;DHT22;51106;53.186;6.598;2022-09-09T14:04:06;21.10;94.90
52979;DHT22;51106;53.186;6.598;2022-09-09T14:06:29;21.20;94.50
52979;DHT22;51106;53.186;6.598;2022-09-09T14:08:51;21.30;93.70
52979;DHT22;51106;53.186;6.598;2022-09-09T14:11:13;21.30;93.20
52979;DHT22;51106;53.186;6.598;2022-09-09T14:13:35;21.10;92.80
52979;DHT22;51106;53.186;6.598;2022-09-09T14:15:59;20.90;93.40
52979;DHT22;51106;53.186;6.598;2022-09-09T14:18:21;20.70;93.50
52979;DHT22;51106;53.186;6.598;2022-09-09T14:20:45;20.50;94.10
52979;DHT22;51106;53.186;6.598;2022-09-09T14:23:10;20.40;94.70
52979;DHT22;51106;53.186;6.598;2022-09-09T14:25:33;20.30;94.60
52979;DHT22;51106;53.186;6.598;2022-09-09T14:27:55;20.40;95.10
52979;DHT22;51106;53.186;6.598;2022-09-09T14:30:17;20.40;95.10
52979;DHT22;51106;53.186;6.598;2022-09-09T14:32:39;20.40;95.10
52979;DHT22;51106;53.186;6.598;2022-09-09T14:35:01;20.40;95.40
52979;DHT22;51106;53.186;6.598;2022-09-09T14:37:23;20.30;95.40
52979;DHT22;51106;53.186;6.598;2022-09-09T14:39:45;20.20;95.60
52979;DHT22;51106;53.186;6.598;2022-09-09T14:42:13;20.20;95.50
52979;DHT22;51106;53.186;6.598;2022-09-09T14:44:35;20.00;95.50
52979;DHT22;51106;53.186;6.598;2022-09-09T14:46:57;19.80;95.50
52979;DHT22;51106;53.186;6.598;2022-09-09T14:49:20;19.70;95.90
52979;DHT22;51106;53.186;6.598;2022-09-09T14:51:42;19.50;96.40
52979;DHT22;51106;53.186;6.598;2022-09-09T14:54:04;19.40;97.00
52979;DHT22;51106;53.186;6.598;2022-09-09T14:56:28;19.20;97.90
52979;DHT22;51106;53.186;6.598;2022-09-09T14:58:57;19.10;98.80
52979;DHT22;51106;53.186;6.598;2022-09-09T15:01:23;19.00;99.60
52979;DHT22;51106;53.186;6.598;2022-09-09T15:03:51;19.00;99.90
52979;DHT22;51106;53.186;6.598;2022-09-09T15:05:57;19.00;99.90
52979;DHT22;51106;53.186;6.598;2022-09-09T15:08:00;19.00;99.90
52979;DHT22;51106;53.186;6.598;2022-09-09T15:10:02;19.10;99.90
52979;DHT22;51106;53.186;6.598;2022-09-09T15:12:05;19.20;99.90
52979;DHT22;51106;53.186;6.598;2022-09-09T15:14:08;19.30;99.90
52979;DHT22;51106;53.186;6.598;2022-09-09T15:16:31;19.40;99.90
52979;DHT22;51106;53.186;6.598;2022-09-09T15:18:36;19.50;99.90
52979;DHT22;51106;53.186;6.598;2022-09-09T15:20:38;19.50;99.90
52979;DHT22;51106;53.186;6.598;2022-09-09T15:22:41;19.50;99.90
52979;DHT22;51106;53.186;6.598;2022-09-09T15:24:43;19.50;99.90
52979;DHT22;51106;53.186;6.598;2022-09-09T15:26:48;19.50;99.90
52979;DHT22;51106;53.186;6.598;2022-09-09T15:28:51;19.50;99.90
52979;DHT22;51106;53.186;6.598;2022-09-09T15:30:55;19.50;99.90
52979;DHT22;51106;53.186;6.598;2022-09-09T15:32:58;19.50;99.90
52979;DHT22;51106;53.186;6.598;2022-09-09T15:35:11;19.40;99.90
52979;DHT22;51106;53.186;6.598;2022-09-09T15:37:18;19.40;99.90
52979;DHT22;51106;53.186;6.598;2022-09-09T15:39:20;19.50;99.90
52979;DHT22;51106;53.186;6.598;2022-09-09T15:41:23;19.50;99.90
52979;DHT22;51106;53.186;6.598;2022-09-09T15:43:32;19.50;99.90
52979;DHT22;51106;53.186;6.598;2022-09-09T15:45:41;19.50;99.90
52979;DHT22;51106;53.186;6.598;2022-09-09T15:47:43;19.50;99.90
52979;DHT22;51106;53.186;6.598;2022-09-09T15:49:46;19.50;99.90
52979;DHT22;51106;53.186;6.598;2022-09-09T15:51:54;19.60;99.90
52979;DHT22;51106;53.186;6.598;2022-09-09T15:53:58;19.70;99.90
52979;DHT22;51106;53.186;6.598;2022-09-09T15:56:00;19.80;99.90
52979;DHT22;51106;53.186;6.598;2022-09-09T15:58:02;19.60;99.90
52979;DHT22;51106;53.186;6.598;2022-09-09T16:00:04;19.60;99.90
52979;DHT22;51106;53.186;6.598;2022-09-09T16:02:09;19.60;99.90
52979;DHT22;51106;53.186;6.598;2022-09-09T16:04:11;19.50;99.90
52979;DHT22;51106;53.186;6.598;2022-09-09T16:06:14;19.50;99.90
52979;DHT22;51106;53.186;6.598;2022-09-09T16:08:18;19.40;99.90
52979;DHT22;51106;53.186;6.598;2022-09-09T16:10:21;19.40;99.90
52979;DHT22;51106;53.186;6.598;2022-09-09T16:12:23;19.40;99.90
52979;DHT22;51106;53.186;6.598;2022-09-09T16:14:25;19.40;99.90
52979;DHT22;51106;53.186;6.598;2022-09-09T16:16:29;19.50;99.90
52979;DHT22;51106;53.186;6.598;2022-09-09T16:18:43;19.50;99.90
52979;DHT22;51106;53.186;6.598;2022-09-09T16:20:54;19.50;99.90
52979;DHT22;51106;53.186;6.598;2022-09-09T16:22:56;19.50;99.90
52979;DHT22;51106;53.186;6.598;2022-09-09T16:24:59;19.50;99.90
52979;DHT22;51106;53.186;6.598;2022-09-09T16:27:02;19.50;99.90
52979;DHT22;51106;53.186;6.598;2022-09-09T16:29:04;19.40;99.90
52979;DHT22;51106;53.186;6.598;2022-09-09T16:31:08;19.30;99.90
52979;DHT22;51106;53.186;6.598;2022-09-09T16:33:11;19.20;99.90
52979;DHT22;51106;53.186;6.598;2022-09-09T16:35:16;19.20;99.90
52979;DHT22;51106;53.186;6.598;2022-09-09T16:37:18;19.10;99.90
52979;DHT22;51106;53.186;6.598;2022-09-09T16:39:21;19.00;99.90
52979;DHT22;51106;53.186;6.598;2022-09-09T16:41:23;19.00;99.90
52979;DHT22;51106;53.186;6.598;2022-09-09T16:43:25;18.90;99.90
52979;DHT22;51106;53.186;6.598;2022-09-09T16:45:27;18.80;99.90
52979;DHT22;51106;53.186;6.598;2022-09-09T16:47:29;18.80;99.90
52979;DHT22;51106;53.186;6.598;2022-09-09T16:49:31;18.80;99.90
52979;DHT22;51106;53.186;6.598;2022-09-09T16:51:41;18.70;99.90
52979;DHT22;51106;53.186;6.598;2022-09-09T16:53:44;18.70;99.90
52979;DHT22;51106;53.186;6.598;2022-09-09T16:55:46;18.60;99.90
52979;DHT22;51106;53.186;6.598;2022-09-09T16:57:48;18.50;99.90